Lady Elliot Island, Australia
Current Conditions -  °F | °C
As of 11:00 AM on Tuesday 21 Oct 2014 (Local Time) from YBUD Reporting Station
Broken Clouds Broken Clouds  
Wind Chill: 77°   Ceiling: 5600
Heat Index: 78°   Visibility: 6mi
Dew Point: 52°   Wind: 17mph
Humidity: 41%   Direction: 120°ESE
Pressure: 30.27"   Gusts: NA
Location:  24.1°S, 152.7°E
Report Text: YBUD 210100Z AUTO 12015KT 9999 // BKN056 25/11 Q1025
Loading
Personal Weather Stations






























Interactive Weather Map
Tropical Storm Tracking
New forecast layout! Learn more

10-Day Weather Forecast

Advertisements
Track Severe Weather on mobile